createdAt,value
2022-12-12T00:00:22.010Z,20.50
2022-12-12T00:02:23.878Z,20.50
2022-12-12T00:04:25.608Z,20.50
2022-12-12T00:06:28.065Z,20.50
2022-12-12T00:08:29.789Z,20.50
2022-12-12T00:10:31.742Z,20.50
2022-12-12T00:12:33.437Z,20.50
2022-12-12T00:14:35.288Z,20.50
2022-12-12T00:16:36.997Z,20.50
2022-12-12T00:18:39.324Z,20.50
2022-12-12T00:20:41.022Z,20.50
2022-12-12T00:22:42.691Z,20.50
2022-12-12T00:24:44.368Z,20.50
2022-12-12T00:26:46.022Z,20.50
2022-12-12T00:28:47.999Z,20.50
2022-12-12T00:30:52.127Z,20.40
2022-12-12T00:32:53.783Z,20.40
2022-12-12T00:34:55.407Z,20.50
2022-12-12T00:36:57.020Z,20.40
2022-12-12T00:38:59.190Z,20.40
2022-12-12T00:41:01.830Z,20.40
2022-12-12T00:43:03.741Z,20.40
2022-12-12T00:45:05.907Z,20.40
2022-12-12T00:47:08.028Z,20.40
2022-12-12T00:49:09.741Z,20.40
2022-12-12T00:51:17.532Z,20.40
2022-12-12T00:53:19.210Z,20.40
2022-12-12T00:55:21.069Z,20.40
2022-12-12T00:57:22.770Z,20.40
2022-12-12T00:59:24.434Z,20.40
2022-12-12T01:01:29.050Z,20.30
2022-12-12T01:03:32.838Z,20.30
2022-12-12T01:05:35.210Z,20.30
2022-12-12T01:07:37.174Z,20.30
2022-12-12T01:09:38.777Z,20.30
2022-12-12T01:11:40.483Z,20.30
2022-12-12T01:13:43.437Z,20.30
2022-12-12T01:15:45.146Z,20.30
2022-12-12T01:17:46.861Z,20.30
2022-12-12T01:19:48.497Z,20.30
2022-12-12T01:21:50.157Z,20.30
2022-12-12T01:23:52.000Z,20.20
2022-12-12T01:26:06.093Z,20.20
2022-12-12T01:28:08.400Z,20.20
2022-12-12T01:30:14.085Z,20.20
2022-12-12T01:32:15.718Z,20.20
2022-12-12T01:34:17.363Z,20.20
2022-12-12T01:36:22.506Z,20.20
2022-12-12T01:38:24.693Z,20.20
2022-12-12T01:40:29.306Z,20.20
2022-12-12T01:42:31.289Z,20.20
2022-12-12T01:44:48.243Z,20.20
2022-12-12T01:46:49.887Z,20.20
2022-12-12T01:49:00.345Z,20.20
2022-12-12T01:51:06.097Z,20.20
2022-12-12T01:53:08.118Z,20.20
2022-12-12T01:55:15.398Z,20.20
2022-12-12T01:57:26.822Z,20.20
2022-12-12T01:59:28.425Z,20.20
2022-12-12T02:01:31.069Z,20.20
2022-12-12T02:03:33.010Z,20.20
2022-12-12T02:05:37.383Z,20.20
2022-12-12T02:07:39.055Z,20.20
2022-12-12T02:09:40.946Z,20.20
2022-12-12T02:11:49.020Z,20.20
2022-12-12T02:13:51.023Z,20.20
2022-12-12T02:16:22.871Z,20.10
2022-12-12T02:18:33.139Z,20.20
2022-12-12T02:20:53.939Z,20.20
2022-12-12T02:23:21.381Z,20.20
2022-12-12T02:26:00.635Z,20.20
2022-12-12T02:28:14.450Z,20.20
2022-12-12T02:30:24.935Z,20.10
2022-12-12T02:33:07.806Z,20.10
2022-12-12T02:35:32.498Z,20.10
2022-12-12T02:38:06.570Z,20.10
2022-12-12T02:40:19.487Z,20.10
2022-12-12T02:42:46.372Z,20.20
2022-12-12T02:44:59.858Z,20.10
2022-12-12T02:47:18.429Z,20.10
2022-12-12T02:49:32.966Z,20.10
2022-12-12T02:51:36.625Z,20.10
2022-12-12T02:53:38.334Z,20.10
2022-12-12T02:55:40.007Z,20.10
2022-12-12T02:57:42.402Z,20.10
2022-12-12T02:59:57.954Z,20.10
2022-12-12T03:02:41.430Z,20.10
2022-12-12T03:05:26.854Z,20.10
2022-12-12T03:07:57.358Z,20.10
2022-12-12T03:10:30.910Z,20.10
2022-12-12T03:12:41.875Z,20.10
2022-12-12T03:15:06.213Z,20.10
2022-12-12T03:17:13.737Z,20.10
2022-12-12T03:19:30.346Z,20.10
2022-12-12T03:21:52.103Z,20.10
2022-12-12T03:23:57.272Z,20.10
2022-12-12T03:26:04.294Z,20.10
2022-12-12T03:28:15.282Z,20.10
2022-12-12T03:30:19.334Z,20.10
2022-12-12T03:32:33.596Z,20.10
2022-12-12T03:34:39.862Z,20.10
2022-12-12T03:37:08.928Z,20.10
2022-12-12T03:39:21.479Z,20.10
2022-12-12T03:41:34.427Z,20.10
2022-12-12T03:43:43.242Z,20.10
2022-12-12T03:46:09.597Z,20.10
2022-12-12T03:48:29.315Z,20.10
2022-12-12T03:50:40.058Z,20.10
2022-12-12T03:52:47.880Z,20.10
2022-12-12T03:54:56.941Z,20.10
2022-12-12T03:57:10.324Z,20.00
2022-12-12T03:59:27.123Z,20.10
2022-12-12T04:01:39.693Z,20.10
2022-12-12T04:04:02.969Z,20.10
2022-12-12T04:06:27.723Z,20.10
2022-12-12T04:08:30.192Z,20.10
2022-12-12T04:10:58.550Z,20.10
2022-12-12T04:13:15.750Z,20.10
2022-12-12T04:15:23.522Z,20.10
2022-12-12T04:17:33.817Z,20.10
2022-12-12T04:20:03.628Z,20.10
2022-12-12T04:22:37.122Z,20.10
2022-12-12T04:24:48.278Z,20.10
2022-12-12T04:26:55.422Z,20.10
2022-12-12T04:29:02.882Z,20.10
2022-12-12T04:31:06.589Z,20.10
2022-12-12T04:33:14.525Z,20.10
2022-12-12T04:35:28.683Z,20.10
2022-12-12T04:37:39.834Z,20.20
2022-12-12T04:39:43.453Z,20.10
2022-12-12T04:41:47.595Z,20.20
2022-12-12T04:43:50.742Z,20.20
2022-12-12T04:46:00.884Z,20.30
2022-12-12T04:48:06.033Z,20.40
2022-12-12T04:50:09.478Z,20.40
2022-12-12T04:52:14.057Z,20.50
2022-12-12T04:54:43.384Z,20.50
2022-12-12T04:56:49.200Z,20.60
2022-12-12T04:58:50.917Z,20.60
2022-12-12T05:01:03.729Z,20.60
2022-12-12T05:03:17.641Z,20.70
2022-12-12T05:05:25.052Z,20.70
2022-12-12T05:07:46.223Z,20.70
2022-12-12T05:09:48.943Z,20.80
2022-12-12T05:11:50.633Z,20.80
2022-12-12T05:13:52.241Z,20.80
2022-12-12T05:15:56.298Z,20.90
2022-12-12T05:18:05.395Z,20.90
2022-12-12T05:20:07.476Z,20.90
2022-12-12T05:22:09.167Z,20.90
2022-12-12T05:24:10.843Z,20.90
2022-12-12T05:26:24.971Z,20.90
2022-12-12T05:28:26.575Z,20.90
2022-12-12T05:30:28.512Z,20.90
2022-12-12T05:32:30.290Z,20.90
2022-12-12T05:34:31.931Z,20.90
2022-12-12T05:36:33.538Z,21.00
2022-12-12T05:38:35.891Z,21.00
2022-12-12T05:40:37.486Z,20.90
2022-12-12T05:42:39.469Z,21.00
2022-12-12T05:44:41.269Z,21.00
2022-12-12T05:46:42.871Z,21.00
2022-12-12T05:48:50.204Z,21.00
2022-12-12T05:50:52.501Z,21.00
2022-12-12T05:52:54.147Z,21.00
2022-12-12T05:54:55.851Z,21.00
2022-12-12T05:56:57.547Z,20.90
2022-12-12T05:58:59.199Z,21.00
2022-12-12T06:01:04.975Z,21.00
2022-12-12T06:03:06.690Z,21.00
2022-12-12T06:05:08.835Z,21.00
2022-12-12T06:07:10.472Z,21.00
2022-12-12T06:09:12.470Z,20.90
2022-12-12T06:11:14.170Z,20.90
2022-12-12T06:13:15.927Z,21.00
2022-12-12T06:15:17.568Z,20.90
2022-12-12T06:17:19.286Z,21.00
2022-12-12T06:19:21.833Z,21.00
2022-12-12T06:21:23.933Z,21.00
2022-12-12T06:23:25.578Z,21.00
2022-12-12T06:25:27.241Z,21.00
2022-12-12T06:27:28.959Z,21.00
2022-12-12T06:29:30.613Z,21.00
2022-12-12T06:31:32.371Z,21.00
2022-12-12T06:33:35.542Z,21.00
2022-12-12T06:35:37.125Z,21.00
2022-12-12T06:37:40.234Z,21.00
2022-12-12T06:39:42.319Z,21.00
2022-12-12T06:41:44.253Z,21.00
2022-12-12T06:43:46.229Z,21.00
2022-12-12T06:45:47.935Z,21.00
2022-12-12T06:47:51.087Z,21.00
2022-12-12T06:49:52.772Z,21.00
2022-12-12T06:51:54.487Z,21.00
2022-12-12T06:53:56.683Z,21.00
2022-12-12T06:55:58.346Z,21.00
2022-12-12T06:57:59.949Z,21.00
2022-12-12T07:00:01.714Z,21.00
2022-12-12T07:02:03.508Z,21.00
2022-12-12T07:04:05.368Z,21.00
2022-12-12T07:06:07.378Z,21.00
2022-12-12T07:08:09.034Z,21.00
2022-12-12T07:10:10.746Z,21.00
2022-12-12T07:12:12.629Z,21.00
2022-12-12T07:14:14.321Z,21.00
2022-12-12T07:16:16.471Z,21.00
2022-12-12T07:18:19.031Z,21.00
2022-12-12T07:20:20.982Z,20.90
2022-12-12T07:22:25.735Z,21.00
2022-12-12T07:24:27.385Z,21.00
2022-12-12T07:26:29.140Z,21.00
2022-12-12T07:28:31.093Z,21.00
2022-12-12T07:30:33.055Z,21.10
2022-12-12T07:32:34.892Z,21.00
2022-12-12T07:34:36.659Z,21.10
2022-12-12T07:36:38.326Z,21.10
2022-12-12T07:38:40.592Z,21.00
2022-12-12T07:40:42.264Z,21.10
2022-12-12T07:42:44.125Z,20.80
2022-12-12T07:44:45.807Z,20.80
2022-12-12T07:46:47.612Z,20.90
2022-12-12T07:48:49.752Z,21.00
2022-12-12T07:50:51.437Z,21.00
2022-12-12T07:52:53.029Z,21.10
2022-12-12T07:54:54.670Z,21.10
2022-12-12T07:56:58.230Z,21.00
2022-12-12T07:58:59.926Z,21.00
2022-12-12T08:01:12.564Z,21.00
2022-12-12T08:03:15.853Z,21.10
2022-12-12T08:05:17.859Z,21.10
2022-12-12T08:07:19.651Z,21.00
2022-12-12T08:09:21.272Z,21.10
2022-12-12T08:11:24.470Z,21.10
2022-12-12T08:13:26.284Z,21.10
2022-12-12T08:15:27.962Z,21.10
2022-12-12T08:17:29.578Z,21.10
2022-12-12T08:19:31.906Z,21.10
2022-12-12T08:21:33.773Z,21.10
2022-12-12T08:23:35.423Z,21.10
2022-12-12T08:25:37.298Z,21.10
2022-12-12T08:27:38.895Z,21.10
2022-12-12T08:29:40.851Z,21.10
2022-12-12T08:31:42.728Z,21.10
2022-12-12T08:33:45.184Z,21.10
2022-12-12T08:35:46.843Z,21.10
2022-12-12T08:37:48.491Z,21.10
2022-12-12T08:39:55.442Z,21.10
2022-12-12T08:41:57.423Z,21.10
2022-12-12T08:43:59.135Z,21.20
2022-12-12T08:46:01.759Z,21.20
2022-12-12T08:48:03.647Z,21.20
2022-12-12T08:50:06.835Z,21.20
2022-12-12T08:52:09.969Z,21.20
2022-12-12T08:54:13.122Z,21.20
2022-12-12T08:56:15.590Z,21.20
2022-12-12T08:58:17.231Z,21.20
2022-12-12T09:00:19.102Z,21.20
2022-12-12T09:02:20.889Z,21.30
2022-12-12T09:04:22.576Z,21.20
2022-12-12T09:06:25.866Z,21.30
2022-12-12T09:08:27.562Z,21.30
2022-12-12T09:10:29.263Z,21.30
2022-12-12T09:12:30.862Z,21.30
2022-12-12T09:14:33.195Z,21.30
2022-12-12T09:16:34.840Z,21.30
2022-12-12T09:18:37.448Z,21.30
2022-12-12T09:20:39.076Z,21.30
2022-12-12T09:22:40.694Z,21.30
2022-12-12T09:24:42.426Z,21.30
2022-12-12T09:26:44.105Z,21.30
2022-12-12T09:28:46.033Z,21.30
2022-12-12T09:30:48.462Z,21.30
2022-12-12T09:32:50.099Z,21.30
2022-12-12T09:34:52.026Z,21.30
2022-12-12T09:36:53.766Z,21.30
2022-12-12T09:38:55.378Z,21.30
2022-12-12T09:41:03.917Z,21.30
2022-12-12T09:43:05.886Z,21.30
2022-12-12T09:45:08.636Z,21.30
2022-12-12T09:47:23.373Z,21.30
2022-12-12T09:49:37.199Z,21.30
2022-12-12T09:51:47.264Z,21.30
2022-12-12T09:53:51.470Z,21.40
2022-12-12T09:56:18.675Z,21.40
2022-12-12T09:58:20.310Z,21.40
2022-12-12T10:00:22.017Z,21.40
2022-12-12T10:02:33.137Z,21.40
2022-12-12T10:04:51.133Z,21.40
2022-12-12T10:07:07.913Z,21.40
2022-12-12T10:09:31.365Z,21.50
2022-12-12T10:11:51.939Z,21.40
2022-12-12T10:13:54.379Z,21.50
2022-12-12T10:16:09.571Z,21.50
2022-12-12T10:18:35.383Z,21.50
2022-12-12T10:20:51.404Z,21.50
2022-12-12T10:23:15.168Z,21.50
2022-12-12T10:25:37.867Z,21.60
2022-12-12T10:27:39.467Z,21.50
2022-12-12T10:29:46.682Z,21.50
2022-12-12T10:32:07.434Z,21.50
2022-12-12T10:34:37.156Z,21.60
2022-12-12T10:37:07.509Z,21.60
2022-12-12T10:39:32.716Z,21.60
2022-12-12T10:41:46.397Z,21.60
2022-12-12T10:44:35.243Z,21.60
2022-12-12T10:46:50.883Z,21.60
2022-12-12T10:48:52.962Z,21.70
2022-12-12T10:50:59.113Z,21.70
2022-12-12T10:53:03.297Z,21.70
2022-12-12T10:55:17.248Z,21.70
2022-12-12T10:57:27.308Z,21.70
2022-12-12T10:59:28.957Z,21.70
2022-12-12T11:04:01.455Z,21.70
2022-12-12T11:06:06.982Z,21.70
2022-12-12T11:08:30.877Z,21.70
2022-12-12T11:10:35.165Z,21.70
2022-12-12T11:12:37.998Z,21.80
2022-12-12T11:14:46.010Z,21.80
2022-12-12T11:16:47.652Z,21.80
2022-12-12T11:19:14.200Z,21.80
2022-12-12T11:21:16.233Z,21.80
2022-12-12T11:23:24.926Z,21.80
2022-12-12T11:25:30.078Z,21.80
2022-12-12T11:27:39.254Z,21.80
2022-12-12T11:29:43.396Z,21.80
2022-12-12T11:31:45.389Z,21.80
2022-12-12T11:33:48.767Z,21.80
2022-12-12T11:35:56.867Z,21.80
2022-12-12T11:38:14.045Z,21.80
2022-12-12T11:40:29.240Z,21.80
2022-12-12T11:42:32.589Z,21.80
2022-12-12T11:44:38.410Z,21.90
2022-12-12T11:46:40.048Z,21.90
2022-12-12T11:48:47.465Z,21.90
2022-12-12T11:50:49.141Z,21.90
2022-12-12T11:52:53.562Z,21.90
2022-12-12T11:54:55.582Z,21.90
2022-12-12T11:57:11.059Z,21.90
2022-12-12T11:59:41.704Z,21.90
2022-12-12T12:01:56.455Z,21.90
2022-12-12T12:04:26.682Z,21.90
2022-12-12T12:06:34.919Z,22.00
2022-12-12T12:09:00.710Z,22.00
2022-12-12T12:11:14.235Z,22.00
2022-12-12T12:13:40.625Z,22.00
2022-12-12T12:15:50.448Z,22.00
2022-12-12T12:18:10.954Z,22.00
2022-12-12T12:20:29.693Z,22.00
2022-12-12T12:23:19.090Z,22.00
2022-12-12T12:25:40.793Z,22.00
2022-12-12T12:28:08.615Z,22.10
2022-12-12T12:30:28.877Z,22.10
2022-12-12T12:32:48.703Z,22.10
2022-12-12T12:35:21.271Z,22.10
2022-12-12T12:37:40.557Z,22.10
2022-12-12T12:40:03.406Z,22.10
2022-12-12T12:42:33.283Z,22.10
2022-12-12T12:45:02.832Z,22.20
2022-12-12T12:47:47.400Z,22.20
2022-12-12T12:49:54.518Z,22.20
2022-12-12T12:52:19.836Z,22.20
2022-12-12T12:54:30.792Z,22.20
2022-12-12T12:56:43.449Z,22.20
2022-12-12T12:58:48.582Z,22.20
2022-12-12T13:00:58.496Z,22.30
2022-12-12T13:03:02.323Z,22.30
2022-12-12T13:05:17.026Z,22.30
2022-12-12T13:07:40.517Z,22.30
2022-12-12T13:10:06.542Z,22.20
2022-12-12T13:12:31.133Z,22.30
2022-12-12T13:14:53.700Z,22.30
2022-12-12T13:16:55.899Z,22.30
2022-12-12T13:19:23.958Z,22.20
2022-12-12T13:21:28.445Z,22.20
2022-12-12T13:23:53.007Z,22.20
2022-12-12T13:26:04.539Z,22.20
2022-12-12T13:28:15.662Z,22.20
2022-12-12T13:30:36.075Z,22.20
2022-12-12T13:33:04.987Z,22.20
2022-12-12T13:35:15.132Z,22.20
2022-12-12T13:37:20.147Z,22.20
2022-12-12T13:39:31.969Z,22.10
2022-12-12T13:41:58.656Z,22.20
2022-12-12T13:44:00.433Z,22.20
2022-12-12T13:46:21.003Z,22.20
2022-12-12T13:48:29.123Z,22.20
2022-12-12T13:50:30.858Z,22.20
2022-12-12T13:52:41.471Z,22.20
2022-12-12T13:54:45.098Z,22.20
2022-12-12T13:56:47.638Z,22.20
2022-12-12T13:58:49.284Z,22.20
2022-12-12T14:01:30.644Z,22.20
2022-12-12T14:03:32.405Z,22.20
2022-12-12T14:05:42.294Z,22.20
2022-12-12T14:07:52.866Z,22.20
2022-12-12T14:09:56.944Z,22.20
2022-12-12T14:12:31.338Z,22.20
2022-12-12T14:14:36.502Z,22.20
2022-12-12T14:16:38.479Z,22.20
2022-12-12T14:18:52.121Z,22.20
2022-12-12T14:21:14.096Z,22.20
2022-12-12T14:23:24.307Z,22.20
2022-12-12T14:25:37.705Z,22.20
2022-12-12T14:27:49.040Z,22.10
2022-12-12T14:29:50.661Z,22.20
2022-12-12T14:32:13.565Z,22.20
2022-12-12T14:34:46.182Z,22.20
2022-12-12T14:36:49.688Z,22.20
2022-12-12T14:39:10.142Z,22.20
2022-12-12T14:41:17.607Z,22.10
2022-12-12T14:43:29.806Z,22.20
2022-12-12T14:45:35.794Z,22.20
2022-12-12T14:47:37.438Z,22.10
2022-12-12T14:49:39.061Z,22.10
2022-12-12T14:51:40.870Z,22.10
2022-12-12T14:53:50.536Z,22.10
2022-12-12T14:55:57.882Z,22.10
2022-12-12T14:57:59.642Z,22.20
2022-12-12T15:00:01.923Z,22.10
2022-12-12T15:02:18.762Z,22.10
2022-12-12T15:04:28.884Z,22.10
2022-12-12T15:06:33.954Z,22.10
2022-12-12T15:08:35.779Z,22.10
2022-12-12T15:10:37.692Z,22.10
2022-12-12T15:12:43.958Z,22.10
2022-12-12T15:14:48.287Z,22.10
2022-12-12T15:17:02.920Z,22.10
2022-12-12T15:19:04.785Z,22.10
2022-12-12T15:21:06.408Z,22.10
2022-12-12T15:23:08.677Z,22.10
2022-12-12T15:25:19.554Z,22.10
2022-12-12T15:27:49.365Z,22.10
2022-12-12T15:29:57.637Z,22.10
2022-12-12T15:32:20.972Z,22.00
2022-12-12T15:34:32.697Z,22.00
2022-12-12T15:36:34.296Z,22.10
2022-12-12T15:38:36.010Z,22.10
2022-12-12T15:40:39.567Z,22.00
2022-12-12T15:42:48.636Z,22.10
2022-12-12T15:44:52.055Z,22.00
2022-12-12T15:46:53.957Z,22.00
2022-12-12T15:48:55.726Z,22.00
2022-12-12T15:51:00.817Z,22.00
2022-12-12T15:53:23.605Z,22.00
2022-12-12T15:55:25.452Z,22.00
2022-12-12T15:57:31.329Z,22.00
2022-12-12T15:59:33.687Z,22.00
2022-12-12T16:01:35.503Z,21.90
2022-12-12T16:03:37.240Z,22.00
2022-12-12T16:05:39.898Z,22.00
2022-12-12T16:07:41.600Z,22.00
2022-12-12T16:09:58.561Z,22.00
2022-12-12T16:12:00.282Z,22.00
2022-12-12T16:14:02.506Z,22.00
2022-12-12T16:16:41.095Z,22.00
2022-12-12T16:18:43.325Z,22.00
2022-12-12T16:20:54.828Z,22.00
2022-12-12T16:23:07.563Z,22.00
2022-12-12T16:25:20.131Z,22.00
2022-12-12T16:27:22.399Z,22.00
2022-12-12T16:29:24.187Z,22.00
2022-12-12T16:31:25.861Z,22.00
2022-12-12T16:33:36.369Z,22.00
2022-12-12T16:35:38.007Z,22.00
2022-12-12T16:37:39.630Z,22.00
2022-12-12T16:39:41.706Z,22.00
2022-12-12T16:41:43.391Z,22.00
2022-12-12T16:43:45.497Z,22.00
2022-12-12T16:45:50.309Z,22.00
2022-12-12T16:47:51.994Z,22.00
2022-12-12T16:49:53.734Z,22.00
2022-12-12T16:51:55.362Z,22.00
2022-12-12T16:53:57.843Z,22.00
2022-12-12T16:55:59.485Z,22.00
2022-12-12T16:58:01.418Z,22.00
2022-12-12T17:00:04.007Z,22.00
2022-12-12T17:02:21.291Z,22.00
2022-12-12T17:04:24.444Z,22.00
2022-12-12T17:06:26.169Z,22.00
2022-12-12T17:08:28.296Z,22.00
2022-12-12T17:10:32.179Z,22.00
2022-12-12T17:12:33.762Z,22.00
2022-12-12T17:14:37.351Z,22.00
2022-12-12T17:16:39.009Z,22.00
2022-12-12T17:18:41.554Z,22.00
2022-12-12T17:20:43.289Z,22.00
2022-12-12T17:22:45.632Z,22.00
2022-12-12T17:24:47.266Z,22.00
2022-12-12T17:26:49.098Z,22.00
2022-12-12T17:28:50.767Z,22.00
2022-12-12T17:30:52.450Z,22.00
2022-12-12T17:35:14.291Z,22.00
2022-12-12T17:37:15.882Z,22.00
2022-12-12T17:39:17.597Z,22.00
2022-12-12T17:41:19.610Z,22.10
2022-12-12T17:43:21.285Z,22.00
2022-12-12T17:45:23.163Z,22.00
2022-12-12T17:47:24.915Z,22.00
2022-12-12T17:49:26.633Z,22.00
2022-12-12T17:51:29.321Z,22.00
2022-12-12T17:53:32.615Z,22.00
2022-12-12T17:55:54.053Z,22.00
2022-12-12T17:57:55.805Z,22.00
2022-12-12T17:59:58.007Z,22.00
2022-12-12T18:01:59.636Z,22.00
2022-12-12T18:04:02.973Z,22.00
2022-12-12T18:06:05.044Z,22.00
2022-12-12T18:08:06.736Z,22.00
2022-12-12T18:10:08.831Z,22.00
2022-12-12T18:12:10.423Z,22.00
2022-12-12T18:14:15.873Z,21.90
2022-12-12T18:16:18.260Z,22.00
2022-12-12T18:18:19.959Z,21.90
2022-12-12T18:20:24.362Z,21.90
2022-12-12T18:22:28.485Z,21.90
2022-12-12T18:24:30.338Z,22.00
2022-12-12T18:26:32.721Z,21.90
2022-12-12T18:28:34.896Z,22.00
2022-12-12T18:30:36.514Z,22.00
2022-12-12T18:32:38.298Z,22.00
2022-12-12T18:34:39.951Z,22.00
2022-12-12T18:36:41.767Z,22.00
2022-12-12T18:38:47.617Z,22.00
2022-12-12T18:40:52.550Z,22.00
2022-12-12T18:42:54.219Z,22.00
2022-12-12T18:44:55.853Z,22.00
2022-12-12T18:46:57.445Z,22.00
2022-12-12T18:49:00.245Z,22.00
2022-12-12T18:51:19.934Z,22.00
2022-12-12T18:53:21.548Z,22.00
2022-12-12T18:55:25.969Z,22.00
2022-12-12T18:57:27.990Z,22.00
2022-12-12T18:59:29.673Z,22.00
2022-12-12T19:01:34.245Z,21.90
2022-12-12T19:03:37.793Z,22.00
2022-12-12T19:05:43.598Z,21.90
2022-12-12T19:07:46.985Z,22.00
2022-12-12T19:09:48.743Z,21.90
2022-12-12T19:11:51.745Z,21.90
2022-12-12T19:13:56.111Z,21.90
2022-12-12T19:16:04.101Z,21.90
2022-12-12T19:18:05.823Z,21.90
2022-12-12T19:20:07.925Z,21.90
2022-12-12T19:22:39.998Z,21.90
2022-12-12T19:24:31.258Z,21.80
2022-12-12T19:26:32.946Z,21.90
2022-12-12T19:28:35.232Z,21.90
2022-12-12T19:30:40.355Z,21.90
2022-12-12T19:32:42.392Z,21.90
2022-12-12T19:34:44.640Z,21.90
2022-12-12T19:36:46.282Z,21.90
2022-12-12T19:38:48.396Z,21.90
2022-12-12T19:40:50.073Z,21.90
2022-12-12T19:42:51.740Z,22.00
2022-12-12T19:44:53.346Z,22.00
2022-12-12T19:46:54.994Z,21.90
2022-12-12T19:49:05.545Z,21.90
2022-12-12T19:51:18.229Z,21.90
2022-12-12T19:53:19.909Z,21.90
2022-12-12T19:55:21.659Z,21.90
2022-12-12T19:57:26.168Z,21.90
2022-12-12T19:59:27.785Z,21.90
2022-12-12T20:01:35.106Z,21.90
2022-12-12T20:03:36.888Z,21.90
2022-12-12T20:05:39.997Z,21.90
2022-12-12T20:07:42.714Z,21.80
2022-12-12T20:09:44.470Z,21.90
2022-12-12T20:11:46.731Z,21.90
2022-12-12T20:13:50.204Z,21.80
2022-12-12T20:15:51.876Z,21.80
2022-12-12T20:17:53.561Z,21.80
2022-12-12T20:19:55.305Z,21.80
2022-12-12T20:22:01.851Z,21.80
2022-12-12T20:24:04.523Z,21.80
2022-12-12T20:26:10.653Z,21.80
2022-12-12T20:28:12.297Z,21.80
2022-12-12T20:30:14.208Z,21.80
2022-12-12T20:32:15.985Z,21.80
2022-12-12T20:34:21.709Z,21.80
2022-12-12T20:36:26.035Z,21.70
2022-12-12T20:38:29.944Z,21.70
2022-12-12T20:40:31.589Z,21.70
2022-12-12T20:42:33.319Z,21.70
2022-12-12T20:44:35.001Z,21.70
2022-12-12T20:46:39.073Z,21.70
2022-12-12T20:48:41.966Z,21.70
2022-12-12T20:50:43.598Z,21.70
2022-12-12T20:52:45.254Z,21.70
2022-12-12T20:54:46.857Z,21.70
2022-12-12T20:56:49.396Z,21.70
2022-12-12T20:58:59.777Z,21.60
2022-12-12T21:01:01.641Z,21.70
2022-12-12T21:03:03.765Z,21.60
2022-12-12T21:05:05.875Z,21.60
2022-12-12T21:07:07.538Z,21.60
2022-12-12T21:09:11.667Z,21.60
2022-12-12T21:11:15.431Z,21.60
2022-12-12T21:13:17.090Z,21.60
2022-12-12T21:15:19.144Z,21.60
2022-12-12T21:17:21.002Z,21.60
2022-12-12T21:19:23.454Z,21.60
2022-12-12T21:21:25.788Z,21.60
2022-12-12T21:23:27.414Z,21.60
2022-12-12T21:25:29.110Z,21.60
2022-12-12T21:27:31.171Z,21.50
2022-12-12T21:29:32.830Z,21.50
2022-12-12T21:31:37.200Z,21.50
2022-12-12T21:33:38.917Z,21.50
2022-12-12T21:35:40.574Z,21.50
2022-12-12T21:37:42.246Z,21.50
2022-12-12T21:39:45.391Z,21.50
2022-12-12T21:41:47.231Z,21.50
2022-12-12T21:43:49.739Z,21.50
2022-12-12T21:45:51.356Z,21.50
2022-12-12T21:47:53.018Z,21.40
2022-12-12T21:49:54.625Z,21.40
2022-12-12T21:51:59.551Z,21.40
2022-12-12T21:54:02.140Z,21.40
2022-12-12T21:56:10.197Z,21.40
2022-12-12T21:58:11.816Z,21.40
2022-12-12T22:00:13.621Z,21.40
2022-12-12T22:02:15.539Z,21.40
2022-12-12T22:04:17.338Z,21.40
2022-12-12T22:06:22.093Z,21.40
2022-12-12T22:08:23.736Z,21.30
2022-12-12T22:10:25.389Z,21.30
2022-12-12T22:12:27.435Z,21.30
2022-12-12T22:14:29.070Z,21.30
2022-12-12T22:16:33.576Z,21.30
2022-12-12T22:18:35.280Z,21.30
2022-12-12T22:20:36.914Z,21.30
2022-12-12T22:22:38.547Z,21.30
2022-12-12T22:24:40.142Z,21.30
2022-12-12T22:26:44.376Z,21.30
2022-12-12T22:28:46.139Z,21.30
2022-12-12T22:30:47.808Z,21.20
2022-12-12T22:32:49.430Z,21.20
2022-12-12T22:34:51.114Z,21.20
2022-12-12T22:36:53.376Z,21.20
2022-12-12T22:38:55.957Z,21.20
2022-12-12T22:40:57.600Z,21.20
2022-12-12T22:42:59.597Z,21.20
2022-12-12T22:45:01.291Z,21.10
2022-12-12T22:47:02.918Z,21.20
2022-12-12T22:49:04.607Z,21.20
2022-12-12T22:51:17.129Z,21.20
2022-12-12T22:53:18.739Z,21.20
2022-12-12T22:55:20.353Z,21.10
2022-12-12T22:57:22.066Z,21.10
2022-12-12T22:59:24.049Z,21.10
2022-12-12T23:01:27.025Z,21.10
2022-12-12T23:03:30.697Z,21.10
2022-12-12T23:05:32.332Z,21.10
2022-12-12T23:07:33.974Z,21.10
2022-12-12T23:09:35.634Z,21.10
2022-12-12T23:11:37.213Z,21.10
2022-12-12T23:13:40.083Z,21.10
2022-12-12T23:15:42.422Z,21.00
2022-12-12T23:17:44.127Z,21.00
2022-12-12T23:19:46.015Z,21.00
2022-12-12T23:21:47.781Z,21.00
2022-12-12T23:23:50.048Z,21.00
2022-12-12T23:25:51.845Z,21.00
2022-12-12T23:27:53.498Z,21.00
2022-12-12T23:29:55.104Z,21.00
2022-12-12T23:31:58.552Z,21.00
2022-12-12T23:34:03.867Z,21.00
2022-12-12T23:36:08.428Z,21.00
2022-12-12T23:38:10.061Z,20.90
2022-12-12T23:40:11.835Z,20.90
2022-12-12T23:42:13.456Z,20.90
2022-12-12T23:44:17.469Z,20.90
2022-12-12T23:46:29.466Z,20.90
2022-12-12T23:48:32.155Z,20.90
2022-12-12T23:50:34.318Z,20.90
2022-12-12T23:52:36.019Z,20.90
2022-12-12T23:54:37.657Z,20.90
2022-12-12T23:56:39.858Z,20.90
2022-12-12T23:58:41.527Z,20.90
